sensor_id;sensor_type;location;lat;lon;timestamp;P1;durP1;ratioP1;P2;durP2;ratioP2
31182;SDS011;17813;0.000;0.000;2023-05-10T00:01:17;5.37;;;4.37;;
31182;SDS011;17813;0.000;0.000;2023-05-10T00:03:44;4.73;;;4.33;;
31182;SDS011;17813;0.000;0.000;2023-05-10T00:06:11;4.50;;;4.10;;
31182;SDS011;17813;0.000;0.000;2023-05-10T00:08:38;5.87;;;4.43;;
31182;SDS011;17813;0.000;0.000;2023-05-10T00:11:07;4.80;;;4.40;;
31182;SDS011;17813;0.000;0.000;2023-05-10T00:13:35;5.47;;;4.90;;
31182;SDS011;17813;0.000;0.000;2023-05-10T00:16:04;5.87;;;4.50;;
31182;SDS011;17813;0.000;0.000;2023-05-10T00:18:32;6.20;;;4.27;;
31182;SDS011;17813;0.000;0.000;2023-05-10T00:20:59;5.33;;;4.30;;
31182;SDS011;17813;0.000;0.000;2023-05-10T00:23:27;4.80;;;4.30;;
31182;SDS011;17813;0.000;0.000;2023-05-10T00:25:54;4.70;;;4.03;;
31182;SDS011;17813;0.000;0.000;2023-05-10T00:28:23;4.70;;;4.30;;
31182;SDS011;17813;0.000;0.000;2023-05-10T00:30:52;4.70;;;4.20;;
31182;SDS011;17813;0.000;0.000;2023-05-10T00:33:19;4.47;;;3.83;;
31182;SDS011;17813;0.000;0.000;2023-05-10T02:36:03;8.70;;;5.53;;
31182;SDS011;17813;0.000;0.000;2023-05-10T02:38:33;6.13;;;5.50;;
31182;SDS011;17813;0.000;0.000;2023-05-10T02:41:04;6.53;;;5.17;;
31182;SDS011;17813;0.000;0.000;2023-05-10T02:43:35;7.23;;;5.40;;
31182;SDS011;17813;0.000;0.000;2023-05-10T02:46:09;5.70;;;5.10;;
31182;SDS011;17813;0.000;0.000;2023-05-10T02:48:40;6.87;;;5.50;;
31182;SDS011;17813;0.000;0.000;2023-05-10T02:51:09;6.40;;;5.40;;
31182;SDS011;17813;0.000;0.000;2023-05-10T02:53:44;7.17;;;5.10;;
31182;SDS011;17813;0.000;0.000;2023-05-10T02:56:25;7.97;;;5.50;;
31182;SDS011;17813;0.000;0.000;2023-05-10T02:59:01;11.37;;;5.70;;
31182;SDS011;17813;0.000;0.000;2023-05-10T03:01:29;5.40;;;4.90;;
31182;SDS011;17813;0.000;0.000;2023-05-10T03:03:56;8.43;;;4.80;;
31182;SDS011;17813;0.000;0.000;2023-05-10T03:06:25;7.80;;;5.10;;
31182;SDS011;17813;0.000;0.000;2023-05-10T03:08:53;5.70;;;4.70;;
31182;SDS011;17813;0.000;0.000;2023-05-10T03:11:34;5.10;;;4.60;;
31182;SDS011;17813;0.000;0.000;2023-05-10T03:17:10;4.90;;;4.30;;
31182;SDS011;17813;0.000;0.000;2023-05-10T03:20:09;5.00;;;4.43;;
31182;SDS011;17813;0.000;0.000;2023-05-10T03:22:45;4.77;;;4.30;;
31182;SDS011;17813;0.000;0.000;2023-05-10T03:25:17;5.10;;;4.60;;
31182;SDS011;17813;0.000;0.000;2023-05-10T03:27:47;7.13;;;4.77;;
31182;SDS011;17813;0.000;0.000;2023-05-10T03:30:15;6.13;;;4.37;;
31182;SDS011;17813;0.000;0.000;2023-05-10T03:32:44;5.63;;;5.03;;
31182;SDS011;17813;0.000;0.000;2023-05-10T09:38:12;5.70;;;5.20;;
31182;SDS011;17813;0.000;0.000;2023-05-10T09:40:40;5.77;;;5.27;;
31182;SDS011;17813;0.000;0.000;2023-05-10T09:43:22;5.67;;;5.17;;
31182;SDS011;17813;0.000;0.000;2023-05-10T09:45:49;5.77;;;5.27;;
31182;SDS011;17813;0.000;0.000;2023-05-10T09:48:17;6.13;;;5.17;;
31182;SDS011;17813;0.000;0.000;2023-05-10T09:50:45;6.40;;;5.77;;
31182;SDS011;17813;0.000;0.000;2023-05-10T09:53:22;6.37;;;5.70;;
31182;SDS011;17813;0.000;0.000;2023-05-10T09:55:50;5.83;;;5.33;;
31182;SDS011;17813;0.000;0.000;2023-05-10T09:58:17;6.63;;;5.93;;
31182;SDS011;17813;0.000;0.000;2023-05-10T10:00:48;5.60;;;5.10;;
31182;SDS011;17813;0.000;0.000;2023-05-10T10:03:22;6.40;;;5.73;;
31182;SDS011;17813;0.000;0.000;2023-05-10T10:05:49;6.20;;;5.70;;
31182;SDS011;17813;0.000;0.000;2023-05-10T10:08:20;7.10;;;6.50;;
31182;SDS011;17813;0.000;0.000;2023-05-10T10:10:47;7.57;;;6.90;;
31182;SDS011;17813;0.000;0.000;2023-05-10T10:13:16;6.80;;;6.20;;
31182;SDS011;17813;0.000;0.000;2023-05-10T10:15:43;8.30;;;7.40;;
31182;SDS011;17813;0.000;0.000;2023-05-10T10:18:15;7.37;;;6.57;;
31182;SDS011;17813;0.000;0.000;2023-05-10T10:20:43;6.90;;;6.30;;
31182;SDS011;17813;0.000;0.000;2023-05-10T10:23:17;7.73;;;7.03;;
31182;SDS011;17813;0.000;0.000;2023-05-10T10:25:52;7.20;;;6.50;;
31182;SDS011;17813;0.000;0.000;2023-05-10T10:28:33;6.57;;;6.07;;
31182;SDS011;17813;0.000;0.000;2023-05-10T10:31:17;6.13;;;5.37;;
31182;SDS011;17813;0.000;0.000;2023-05-10T10:34:09;6.30;;;5.30;;
31182;SDS011;17813;0.000;0.000;2023-05-10T12:37:30;3.63;;;3.33;;
31182;SDS011;17813;0.000;0.000;2023-05-10T12:40:01;3.90;;;3.60;;
31182;SDS011;17813;0.000;0.000;2023-05-10T12:42:30;4.10;;;3.77;;
31182;SDS011;17813;0.000;0.000;2023-05-10T12:44:59;3.70;;;3.40;;
31182;SDS011;17813;0.000;0.000;2023-05-10T12:47:26;4.17;;;3.77;;
31182;SDS011;17813;0.000;0.000;2023-05-10T12:49:53;4.33;;;3.93;;
31182;SDS011;17813;0.000;0.000;2023-05-10T12:52:20;4.17;;;3.77;;
31182;SDS011;17813;0.000;0.000;2023-05-10T12:54:48;3.83;;;3.53;;
31182;SDS011;17813;0.000;0.000;2023-05-10T12:57:16;3.87;;;3.50;;
31182;SDS011;17813;0.000;0.000;2023-05-10T12:59:47;3.80;;;3.50;;
31182;SDS011;17813;0.000;0.000;2023-05-10T13:02:14;4.03;;;3.73;;
31182;SDS011;17813;0.000;0.000;2023-05-10T13:04:44;3.90;;;3.60;;
31182;SDS011;17813;0.000;0.000;2023-05-10T13:07:12;6.40;;;3.60;;
31182;SDS011;17813;0.000;0.000;2023-05-10T13:09:39;4.27;;;3.87;;
31182;SDS011;17813;0.000;0.000;2023-05-10T13:12:08;4.10;;;3.80;;
31182;SDS011;17813;0.000;0.000;2023-05-10T13:14:35;4.13;;;3.83;;
31182;SDS011;17813;0.000;0.000;2023-05-10T13:17:13;3.87;;;3.57;;
31182;SDS011;17813;0.000;0.000;2023-05-10T13:19:41;3.97;;;3.67;;
31182;SDS011;17813;0.000;0.000;2023-05-10T13:22:08;4.10;;;3.80;;
31182;SDS011;17813;0.000;0.000;2023-05-10T13:24:36;4.50;;;4.20;;
31182;SDS011;17813;0.000;0.000;2023-05-10T13:27:02;5.03;;;4.53;;
31182;SDS011;17813;0.000;0.000;2023-05-10T13:29:30;5.53;;;5.03;;
31182;SDS011;17813;0.000;0.000;2023-05-10T13:31:57;4.57;;;4.17;;
31182;SDS011;17813;0.000;0.000;2023-05-10T13:34:24;5.20;;;4.70;;
31182;SDS011;17813;0.000;0.000;2023-05-10T13:36:51;5.07;;;4.67;;
31182;SDS011;17813;0.000;0.000;2023-05-10T13:39:20;5.00;;;4.50;;
31182;SDS011;17813;0.000;0.000;2023-05-10T13:41:48;5.13;;;4.70;;
31182;SDS011;17813;0.000;0.000;2023-05-10T13:44:15;5.20;;;4.70;;
31182;SDS011;17813;0.000;0.000;2023-05-10T13:46:42;4.63;;;4.23;;
31182;SDS011;17813;0.000;0.000;2023-05-10T13:49:10;4.40;;;4.00;;
31182;SDS011;17813;0.000;0.000;2023-05-10T13:51:37;4.83;;;4.43;;
31182;SDS011;17813;0.000;0.000;2023-05-10T13:54:04;4.60;;;4.20;;
31182;SDS011;17813;0.000;0.000;2023-05-10T13:56:32;4.77;;;4.37;;
31182;SDS011;17813;0.000;0.000;2023-05-10T13:58:59;6.73;;;4.70;;
31182;SDS011;17813;0.000;0.000;2023-05-10T14:01:31;5.50;;;5.00;;
31182;SDS011;17813;0.000;0.000;2023-05-10T14:03:58;6.20;;;5.00;;
31182;SDS011;17813;0.000;0.000;2023-05-10T14:06:25;5.03;;;4.60;;
31182;SDS011;17813;0.000;0.000;2023-05-10T14:08:53;4.40;;;4.10;;
31182;SDS011;17813;0.000;0.000;2023-05-10T14:11:21;4.47;;;4.17;;
31182;SDS011;17813;0.000;0.000;2023-05-10T14:13:49;4.60;;;4.20;;
31182;SDS011;17813;0.000;0.000;2023-05-10T14:16:17;4.70;;;4.30;;
31182;SDS011;17813;0.000;0.000;2023-05-10T14:18:44;5.13;;;4.73;;
31182;SDS011;17813;0.000;0.000;2023-05-10T14:21:17;6.27;;;5.63;;
31182;SDS011;17813;0.000;0.000;2023-05-10T14:23:54;7.17;;;6.47;;
31182;SDS011;17813;0.000;0.000;2023-05-10T14:26:27;6.30;;;5.80;;
31182;SDS011;17813;0.000;0.000;2023-05-10T14:28:54;4.87;;;4.47;;
31182;SDS011;17813;0.000;0.000;2023-05-10T14:31:27;5.80;;;5.30;;
31182;SDS011;17813;0.000;0.000;2023-05-10T14:33:56;6.53;;;5.87;;
31182;SDS011;17813;0.000;0.000;2023-05-10T14:36:23;7.70;;;6.10;;
31182;SDS011;17813;0.000;0.000;2023-05-10T15:37:47;3.90;;;3.60;;
31182;SDS011;17813;0.000;0.000;2023-05-10T15:40:15;3.80;;;3.50;;
31182;SDS011;17813;0.000;0.000;2023-05-10T15:42:42;3.50;;;3.20;;
31182;SDS011;17813;0.000;0.000;2023-05-10T15:45:11;3.50;;;3.20;;
31182;SDS011;17813;0.000;0.000;2023-05-10T15:47:38;3.40;;;3.20;;
31182;SDS011;17813;0.000;0.000;2023-05-10T15:50:06;3.60;;;3.30;;
31182;SDS011;17813;0.000;0.000;2023-05-10T15:52:35;3.30;;;3.00;;
31182;SDS011;17813;0.000;0.000;2023-05-10T15:55:05;3.73;;;3.43;;
31182;SDS011;17813;0.000;0.000;2023-05-10T15:57:39;3.57;;;3.27;;
31182;SDS011;17813;0.000;0.000;2023-05-10T16:00:07;3.47;;;3.23;;
31182;SDS011;17813;0.000;0.000;2023-05-10T16:02:37;4.10;;;3.80;;
31182;SDS011;17813;0.000;0.000;2023-05-10T16:05:05;4.13;;;3.73;;
31182;SDS011;17813;0.000;0.000;2023-05-10T16:07:32;4.47;;;4.03;;
31182;SDS011;17813;0.000;0.000;2023-05-10T16:10:00;4.13;;;3.83;;
31182;SDS011;17813;0.000;0.000;2023-05-10T16:12:29;4.00;;;3.70;;
31182;SDS011;17813;0.000;0.000;2023-05-10T16:14:57;4.20;;;3.80;;
31182;SDS011;17813;0.000;0.000;2023-05-10T16:17:24;4.10;;;3.73;;
31182;SDS011;17813;0.000;0.000;2023-05-10T16:19:52;3.67;;;3.40;;
31182;SDS011;17813;0.000;0.000;2023-05-10T16:22:19;3.90;;;3.60;;
31182;SDS011;17813;0.000;0.000;2023-05-10T16:24:47;3.73;;;3.40;;
31182;SDS011;17813;0.000;0.000;2023-05-10T16:27:18;3.63;;;3.33;;
31182;SDS011;17813;0.000;0.000;2023-05-10T16:29:46;3.87;;;3.57;;
31182;SDS011;17813;0.000;0.000;2023-05-10T16:32:13;3.80;;;3.50;;
31182;SDS011;17813;0.000;0.000;2023-05-10T16:34:39;3.80;;;3.50;;
31182;SDS011;17813;0.000;0.000;2023-05-10T16:37:07;11.57;;;3.40;;
31182;SDS011;17813;0.000;0.000;2023-05-10T16:39:35;4.30;;;3.90;;
31182;SDS011;17813;0.000;0.000;2023-05-10T16:42:02;4.23;;;3.83;;
31182;SDS011;17813;0.000;0.000;2023-05-10T16:44:30;4.70;;;4.30;;
31182;SDS011;17813;0.000;0.000;2023-05-10T16:46:57;4.60;;;4.20;;
31182;SDS011;17813;0.000;0.000;2023-05-10T16:49:24;4.37;;;4.07;;
31182;SDS011;17813;0.000;0.000;2023-05-10T16:51:51;4.60;;;4.27;;
31182;SDS011;17813;0.000;0.000;2023-05-10T16:54:19;4.70;;;4.30;;
31182;SDS011;17813;0.000;0.000;2023-05-10T16:56:46;4.00;;;3.70;;
31182;SDS011;17813;0.000;0.000;2023-05-10T16:59:13;3.87;;;3.67;;
31182;SDS011;17813;0.000;0.000;2023-05-10T17:01:41;3.80;;;3.50;;
31182;SDS011;17813;0.000;0.000;2023-05-10T17:04:08;3.70;;;3.40;;
31182;SDS011;17813;0.000;0.000;2023-05-10T17:06:35;3.07;;;2.87;;
31182;SDS011;17813;0.000;0.000;2023-05-10T17:09:02;3.20;;;3.00;;
31182;SDS011;17813;0.000;0.000;2023-05-10T17:11:31;3.00;;;2.80;;
31182;SDS011;17813;0.000;0.000;2023-05-10T17:13:59;2.83;;;2.63;;
31182;SDS011;17813;0.000;0.000;2023-05-10T17:16:27;2.80;;;2.60;;
31182;SDS011;17813;0.000;0.000;2023-05-10T17:18:55;2.90;;;2.70;;
31182;SDS011;17813;0.000;0.000;2023-05-10T17:21:22;2.57;;;2.37;;
31182;SDS011;17813;0.000;0.000;2023-05-10T17:23:49;2.40;;;2.30;;
31182;SDS011;17813;0.000;0.000;2023-05-10T17:26:16;2.10;;;2.00;;
31182;SDS011;17813;0.000;0.000;2023-05-10T17:28:43;2.30;;;2.10;;
31182;SDS011;17813;0.000;0.000;2023-05-10T17:31:11;1.93;;;1.83;;
31182;SDS011;17813;0.000;0.000;2023-05-10T17:33:38;1.80;;;1.70;;
31182;SDS011;17813;0.000;0.000;2023-05-10T17:36:05;2.10;;;2.00;;
31182;SDS011;17813;0.000;0.000;2023-05-10T17:38:32;1.90;;;1.80;;
31182;SDS011;17813;0.000;0.000;2023-05-10T17:40:59;2.30;;;2.10;;
31182;SDS011;17813;0.000;0.000;2023-05-10T17:43:26;2.40;;;2.20;;
31182;SDS011;17813;0.000;0.000;2023-05-10T17:45:54;2.20;;;2.10;;
31182;SDS011;17813;0.000;0.000;2023-05-10T17:48:21;2.40;;;2.20;;
31182;SDS011;17813;0.000;0.000;2023-05-10T17:50:49;2.47;;;2.27;;
31182;SDS011;17813;0.000;0.000;2023-05-10T17:53:16;2.40;;;2.20;;
31182;SDS011;17813;0.000;0.000;2023-05-10T17:55:43;2.20;;;2.10;;
31182;SDS011;17813;0.000;0.000;2023-05-10T17:58:12;1.90;;;1.80;;
31182;SDS011;17813;0.000;0.000;2023-05-10T18:00:40;2.27;;;2.17;;
31182;SDS011;17813;0.000;0.000;2023-05-10T18:03:06;2.40;;;2.20;;
31182;SDS011;17813;0.000;0.000;2023-05-10T18:05:34;2.57;;;2.37;;
31182;SDS011;17813;0.000;0.000;2023-05-10T18:08:03;2.20;;;2.10;;
31182;SDS011;17813;0.000;0.000;2023-05-10T18:10:31;2.50;;;2.30;;
31182;SDS011;17813;0.000;0.000;2023-05-10T18:12:58;2.80;;;2.60;;
31182;SDS011;17813;0.000;0.000;2023-05-10T18:15:32;2.90;;;2.70;;
31182;SDS011;17813;0.000;0.000;2023-05-10T18:18:05;2.60;;;2.40;;
31182;SDS011;17813;0.000;0.000;2023-05-10T18:20:33;2.17;;;2.07;;
31182;SDS011;17813;0.000;0.000;2023-05-10T18:23:00;2.30;;;2.20;;
31182;SDS011;17813;0.000;0.000;2023-05-10T18:25:27;2.77;;;2.57;;
31182;SDS011;17813;0.000;0.000;2023-05-10T18:27:55;2.47;;;2.27;;
31182;SDS011;17813;0.000;0.000;2023-05-10T18:30:21;2.70;;;2.50;;
31182;SDS011;17813;0.000;0.000;2023-05-10T18:32:48;2.53;;;2.33;;
31182;SDS011;17813;0.000;0.000;2023-05-10T18:35:15;2.50;;;2.30;;
31182;SDS011;17813;0.000;0.000;2023-05-10T18:37:42;2.60;;;2.40;;
31182;SDS011;17813;0.000;0.000;2023-05-10T19:08:01;3.60;;;3.30;;
31182;SDS011;17813;0.000;0.000;2023-05-10T19:47:23;4.00;;;3.40;;
31182;SDS011;17813;0.000;0.000;2023-05-10T20:39:07;6.57;;;6.07;;
31182;SDS011;17813;0.000;0.000;2023-05-10T20:41:36;5.80;;;5.30;;
31182;SDS011;17813;0.000;0.000;2023-05-10T20:44:04;6.30;;;5.80;;
31182;SDS011;17813;0.000;0.000;2023-05-10T20:46:32;5.83;;;5.33;;
31182;SDS011;17813;0.000;0.000;2023-05-10T20:48:59;5.70;;;5.20;;
31182;SDS011;17813;0.000;0.000;2023-05-10T20:51:26;5.80;;;5.20;;
31182;SDS011;17813;0.000;0.000;2023-05-10T20:53:55;5.70;;;5.20;;
31182;SDS011;17813;0.000;0.000;2023-05-10T20:56:22;5.73;;;5.23;;
31182;SDS011;17813;0.000;0.000;2023-05-10T20:58:49;5.67;;;5.27;;
31182;SDS011;17813;0.000;0.000;2023-05-10T21:01:17;6.03;;;5.50;;
31182;SDS011;17813;0.000;0.000;2023-05-10T21:03:44;6.20;;;5.60;;
31182;SDS011;17813;0.000;0.000;2023-05-10T21:06:11;6.10;;;5.50;;
31182;SDS011;17813;0.000;0.000;2023-05-10T21:08:38;6.20;;;5.70;;
31182;SDS011;17813;0.000;0.000;2023-05-10T21:11:05;6.00;;;5.50;;
31182;SDS011;17813;0.000;0.000;2023-05-10T21:13:32;5.67;;;5.20;;
31182;SDS011;17813;0.000;0.000;2023-05-10T21:15:59;5.33;;;4.93;;
31182;SDS011;17813;0.000;0.000;2023-05-10T21:18:26;5.70;;;5.30;;
31182;SDS011;17813;0.000;0.000;2023-05-10T21:20:54;5.80;;;5.27;;
31182;SDS011;17813;0.000;0.000;2023-05-10T21:23:21;6.10;;;5.60;;
31182;SDS011;17813;0.000;0.000;2023-05-10T21:25:49;5.70;;;5.30;;
31182;SDS011;17813;0.000;0.000;2023-05-10T21:28:17;5.83;;;5.33;;
31182;SDS011;17813;0.000;0.000;2023-05-10T21:30:45;6.20;;;5.60;;
31182;SDS011;17813;0.000;0.000;2023-05-10T21:33:14;5.83;;;5.37;;
31182;SDS011;17813;0.000;0.000;2023-05-10T21:35:41;5.43;;;5.03;;
31182;SDS011;17813;0.000;0.000;2023-05-10T21:38:09;6.00;;;5.50;;
31182;SDS011;17813;0.000;0.000;2023-05-10T21:40:37;5.70;;;5.30;;
31182;SDS011;17813;0.000;0.000;2023-05-10T21:43:04;6.20;;;5.70;;
31182;SDS011;17813;0.000;0.000;2023-05-10T21:45:35;5.50;;;5.10;;
31182;SDS011;17813;0.000;0.000;2023-05-10T21:48:03;5.47;;;5.07;;
31182;SDS011;17813;0.000;0.000;2023-05-10T21:50:29;5.93;;;5.43;;
31182;SDS011;17813;0.000;0.000;2023-05-10T21:52:56;5.63;;;5.17;;
31182;SDS011;17813;0.000;0.000;2023-05-10T21:55:25;5.90;;;5.10;;
31182;SDS011;17813;0.000;0.000;2023-05-10T21:57:52;5.50;;;5.10;;
31182;SDS011;17813;0.000;0.000;2023-05-10T22:00:22;5.87;;;5.47;;
31182;SDS011;17813;0.000;0.000;2023-05-10T22:02:51;6.60;;;6.00;;
31182;SDS011;17813;0.000;0.000;2023-05-10T22:05:25;6.10;;;5.60;;
31182;SDS011;17813;0.000;0.000;2023-05-10T22:07:54;5.57;;;5.17;;
31182;SDS011;17813;0.000;0.000;2023-05-10T22:10:22;5.47;;;5.07;;
31182;SDS011;17813;0.000;0.000;2023-05-10T22:12:50;4.83;;;4.43;;
31182;SDS011;17813;0.000;0.000;2023-05-10T22:15:17;4.33;;;4.03;;
31182;SDS011;17813;0.000;0.000;2023-05-10T22:17:44;4.03;;;3.50;;
31182;SDS011;17813;0.000;0.000;2023-05-10T22:20:13;4.37;;;3.90;;
31182;SDS011;17813;0.000;0.000;2023-05-10T22:22:42;4.83;;;4.53;;
31182;SDS011;17813;0.000;0.000;2023-05-10T22:25:11;4.90;;;4.50;;
31182;SDS011;17813;0.000;0.000;2023-05-10T22:27:39;5.13;;;4.77;;
31182;SDS011;17813;0.000;0.000;2023-05-10T22:30:06;4.43;;;4.13;;
31182;SDS011;17813;0.000;0.000;2023-05-10T22:32:34;5.00;;;4.50;;
31182;SDS011;17813;0.000;0.000;2023-05-10T22:35:01;4.00;;;3.70;;
31182;SDS011;17813;0.000;0.000;2023-05-10T22:37:28;3.90;;;3.60;;
31182;SDS011;17813;0.000;0.000;2023-05-10T22:40:04;3.10;;;2.90;;
31182;SDS011;17813;0.000;0.000;2023-05-10T22:42:32;3.57;;;3.30;;
31182;SDS011;17813;0.000;0.000;2023-05-10T22:44:59;2.60;;;2.40;;
31182;SDS011;17813;0.000;0.000;2023-05-10T22:47:29;3.53;;;2.33;;
31182;SDS011;17813;0.000;0.000;2023-05-10T22:49:57;2.13;;;1.97;;
31182;SDS011;17813;0.000;0.000;2023-05-10T22:52:25;2.80;;;2.20;;
31182;SDS011;17813;0.000;0.000;2023-05-10T22:54:53;2.53;;;2.33;;
31182;SDS011;17813;0.000;0.000;2023-05-10T22:57:22;2.30;;;2.10;;
31182;SDS011;17813;0.000;0.000;2023-05-10T22:59:51;2.30;;;2.10;;
31182;SDS011;17813;0.000;0.000;2023-05-10T23:02:21;1.90;;;1.80;;
31182;SDS011;17813;0.000;0.000;2023-05-10T23:04:49;1.90;;;1.80;;
31182;SDS011;17813;0.000;0.000;2023-05-10T23:07:18;1.63;;;1.53;;
31182;SDS011;17813;0.000;0.000;2023-05-10T23:09:46;1.80;;;1.70;;
31182;SDS011;17813;0.000;0.000;2023-05-10T23:12:15;1.80;;;1.70;;
31182;SDS011;17813;0.000;0.000;2023-05-10T23:14:44;2.20;;;2.00;;
31182;SDS011;17813;0.000;0.000;2023-05-10T23:17:13;2.40;;;2.27;;
31182;SDS011;17813;0.000;0.000;2023-05-10T23:19:41;2.50;;;2.30;;
31182;SDS011;17813;0.000;0.000;2023-05-10T23:22:09;3.97;;;2.60;;
31182;SDS011;17813;0.000;0.000;2023-05-10T23:24:36;2.50;;;2.30;;
31182;SDS011;17813;0.000;0.000;2023-05-10T23:27:05;2.27;;;2.13;;
31182;SDS011;17813;0.000;0.000;2023-05-10T23:29:31;3.87;;;2.10;;
31182;SDS011;17813;0.000;0.000;2023-05-10T23:31:59;2.77;;;1.80;;
31182;SDS011;17813;0.000;0.000;2023-05-10T23:34:26;2.40;;;2.20;;
31182;SDS011;17813;0.000;0.000;2023-05-10T23:36:57;2.27;;;2.10;;
31182;SDS011;17813;0.000;0.000;2023-05-10T23:39:24;2.53;;;1.90;;
31182;SDS011;17813;0.000;0.000;2023-05-10T23:41:52;3.23;;;1.90;;
31182;SDS011;17813;0.000;0.000;2023-05-10T23:44:19;3.17;;;2.27;;
31182;SDS011;17813;0.000;0.000;2023-05-10T23:46:46;2.83;;;2.00;;
31182;SDS011;17813;0.000;0.000;2023-05-10T23:49:13;3.23;;;2.10;;
31182;SDS011;17813;0.000;0.000;2023-05-10T23:51:42;2.40;;;2.20;;
31182;SDS011;17813;0.000;0.000;2023-05-10T23:54:09;2.80;;;2.50;;
31182;SDS011;17813;0.000;0.000;2023-05-10T23:56:39;2.77;;;2.40;;
31182;SDS011;17813;0.000;0.000;2023-05-10T23:59:06;2.27;;;2.03;;
